createdAt,value
2022-08-04T00:00:31.446Z,99245.00
2022-08-04T00:02:12.083Z,99247.00
2022-08-04T00:03:56.806Z,99247.00
2022-08-04T00:05:41.647Z,99250.00
2022-08-04T00:07:42.698Z,99243.00
2022-08-04T00:09:39.152Z,99233.00
2022-08-04T00:11:21.848Z,99231.00
2022-08-04T00:12:58.812Z,99237.00
2022-08-04T00:14:38.925Z,99234.00
2022-08-04T00:16:15.406Z,99236.00
2022-08-04T00:18:00.661Z,99228.00
2022-08-04T00:19:45.071Z,99230.00
2022-08-04T00:21:25.364Z,99229.00
2022-08-04T00:23:00.943Z,99230.00
2022-08-04T00:24:37.910Z,99231.00
2022-08-04T00:26:12.084Z,99230.00
2022-08-04T00:27:46.676Z,99234.00
2022-08-04T00:29:20.505Z,99227.00
2022-08-04T00:30:55.432Z,99226.00
2022-08-04T00:32:34.317Z,99224.00
2022-08-04T00:34:12.952Z,99229.00
2022-08-04T00:35:47.641Z,99221.00
2022-08-04T00:37:23.488Z,99221.00
2022-08-04T00:39:00.740Z,99219.00
2022-08-04T00:40:48.805Z,99214.00
2022-08-04T00:42:49.466Z,99217.00
2022-08-04T00:44:44.264Z,99219.00
2022-08-04T00:46:49.368Z,99210.00
2022-08-04T00:48:54.112Z,99212.00
2022-08-04T00:50:45.952Z,99207.00
2022-08-04T00:52:34.527Z,99213.00
2022-08-04T00:54:26.648Z,99213.00
2022-08-04T00:56:31.077Z,99216.00
2022-08-04T00:58:32.674Z,99210.00
2022-08-04T01:00:15.051Z,99214.00
2022-08-04T01:02:02.466Z,99206.00
2022-08-04T01:04:04.645Z,99208.00
2022-08-04T01:06:00.189Z,99210.00
2022-08-04T01:08:26.875Z,99210.00
2022-08-04T01:10:17.409Z,99210.00
2022-08-04T01:12:12.801Z,99202.00
2022-08-04T01:14:22.541Z,99204.00
2022-08-04T01:16:05.312Z,99208.00
2022-08-04T01:18:01.738Z,99201.00
2022-08-04T01:20:03.275Z,99194.00
2022-08-04T01:22:18.560Z,99203.00
2022-08-04T01:24:26.924Z,99198.00
2022-08-04T01:26:58.272Z,99203.00
2022-08-04T01:29:02.807Z,99190.00
2022-08-04T01:30:44.100Z,99193.00
2022-08-04T01:32:26.530Z,99191.00
2022-08-04T01:34:07.729Z,99192.00
2022-08-04T01:35:49.175Z,99185.00
2022-08-04T01:37:40.970Z,99187.00
2022-08-04T01:39:33.541Z,99186.00
2022-08-04T01:41:11.332Z,99175.00
2022-08-04T01:42:46.455Z,99185.00
2022-08-04T01:44:21.660Z,99185.00
2022-08-04T01:46:01.508Z,99180.00
2022-08-04T01:47:38.764Z,99180.00
2022-08-04T01:49:13.569Z,99176.00
2022-08-04T01:50:52.997Z,99175.00
2022-08-04T01:52:29.905Z,99175.00
2022-08-04T01:54:02.374Z,99171.00
2022-08-04T01:55:55.177Z,99170.00
2022-08-04T01:57:38.732Z,99170.00
2022-08-04T01:59:18.588Z,99167.00
2022-08-04T02:01:08.190Z,99165.00
2022-08-04T02:02:47.809Z,99156.00
2022-08-04T02:04:24.293Z,99171.00
2022-08-04T02:06:09.899Z,99167.00
2022-08-04T02:08:00.454Z,99159.00
2022-08-04T02:09:54.159Z,99155.00
2022-08-04T02:11:28.633Z,99156.00
2022-08-04T02:13:27.968Z,99150.00
2022-08-04T02:15:15.073Z,99153.00
2022-08-04T02:16:54.082Z,99156.00
2022-08-04T02:18:34.532Z,99146.00
2022-08-04T02:20:16.719Z,99144.00
2022-08-04T02:21:59.425Z,99146.00
2022-08-04T02:23:38.612Z,99138.00
2022-08-04T02:25:15.622Z,99132.00
2022-08-04T02:26:52.124Z,99140.00
2022-08-04T02:28:35.078Z,99144.00
2022-08-04T02:30:08.698Z,99137.00
2022-08-04T02:31:54.309Z,99135.00
2022-08-04T02:33:37.609Z,99127.00
2022-08-04T02:35:20.847Z,99131.00
2022-08-04T02:36:57.262Z,99133.00
2022-08-04T02:38:54.978Z,99135.00
2022-08-04T02:40:32.821Z,99128.00
2022-08-04T02:42:07.629Z,99127.00
2022-08-04T02:43:50.914Z,99132.00
2022-08-04T02:45:28.022Z,99124.00
2022-08-04T02:47:05.223Z,99127.00
2022-08-04T02:48:43.653Z,99121.00
2022-08-04T02:50:28.132Z,99121.00
2022-08-04T02:52:03.417Z,99120.00
2022-08-04T02:53:38.352Z,99120.00
2022-08-04T02:55:15.094Z,99125.00
2022-08-04T02:56:53.916Z,99116.00
2022-08-04T02:58:35.196Z,99118.00
2022-08-04T03:00:27.739Z,99115.00
2022-08-04T03:02:02.399Z,99121.00
2022-08-04T03:03:45.211Z,99119.00
2022-08-04T03:05:23.075Z,99115.00
2022-08-04T03:07:50.586Z,99109.00
2022-08-04T03:10:25.707Z,99111.00
2022-08-04T03:12:49.966Z,99104.00
2022-08-04T03:15:33.434Z,99100.00
2022-08-04T03:18:02.511Z,99109.00
2022-08-04T03:20:33.467Z,99105.00
2022-08-04T03:23:12.903Z,99107.00
2022-08-04T03:25:28.971Z,99105.00
2022-08-04T03:27:28.619Z,99108.00
2022-08-04T03:29:43.391Z,99102.00
2022-08-04T03:32:11.208Z,99103.00
2022-08-04T03:34:11.509Z,99104.00
2022-08-04T03:36:31.572Z,99113.00
2022-08-04T03:38:44.486Z,99114.00
2022-08-04T03:41:12.127Z,99110.00
2022-08-04T03:43:58.879Z,99099.00
2022-08-04T03:46:11.265Z,99099.00
2022-08-04T03:48:17.753Z,99110.00
2022-08-04T03:50:41.162Z,99100.00
2022-08-04T03:53:05.671Z,99100.00
2022-08-04T03:55:35.999Z,99098.00
2022-08-04T03:57:53.172Z,99096.00
2022-08-04T03:59:56.829Z,99089.00
2022-08-04T04:02:06.715Z,99097.00
2022-08-04T04:04:15.950Z,99094.00
2022-08-04T04:06:28.221Z,99094.00
2022-08-04T04:08:52.577Z,99090.00
2022-08-04T04:10:54.796Z,99100.00
2022-08-04T04:12:55.954Z,99089.00
2022-08-04T04:15:03.198Z,99094.00
2022-08-04T04:16:57.713Z,99089.00
2022-08-04T04:18:53.485Z,99090.00
2022-08-04T04:20:53.182Z,99090.00
2022-08-04T04:22:55.416Z,99089.00
2022-08-04T04:24:55.644Z,99090.00
2022-08-04T04:26:56.251Z,99091.00
2022-08-04T04:29:02.845Z,99092.00
2022-08-04T04:30:53.316Z,99097.00
2022-08-04T04:32:47.366Z,99087.00
2022-08-04T04:34:46.017Z,99088.00
2022-08-04T04:36:33.379Z,99095.00
2022-08-04T04:38:59.900Z,99096.00
2022-08-04T04:40:49.396Z,99090.00
2022-08-04T04:43:01.663Z,99095.00
2022-08-04T04:45:16.472Z,99088.00
2022-08-04T04:47:04.575Z,99090.00
2022-08-04T04:48:54.679Z,99103.00
2022-08-04T04:50:48.073Z,99095.00
2022-08-04T04:52:31.286Z,99099.00
2022-08-04T04:54:15.453Z,99097.00
2022-08-04T04:56:00.705Z,99099.00
2022-08-04T04:57:53.530Z,99099.00
2022-08-04T04:59:34.750Z,99096.00
2022-08-04T05:01:57.888Z,99098.00
2022-08-04T05:04:20.179Z,99100.00
2022-08-04T05:06:21.463Z,99099.00
2022-08-04T05:08:44.866Z,99096.00
2022-08-04T05:10:40.662Z,99096.00
2022-08-04T05:14:22.907Z,99092.00
2022-08-04T05:14:44.710Z,99100.00
2022-08-04T05:16:22.459Z,99094.00
2022-08-04T05:17:59.912Z,99091.00
2022-08-04T05:19:51.153Z,99095.00
2022-08-04T05:21:40.754Z,99094.00
2022-08-04T05:23:20.531Z,99090.00
2022-08-04T05:25:02.847Z,99092.00
2022-08-04T05:26:47.227Z,99094.00
2022-08-04T05:28:29.519Z,99097.00
2022-08-04T05:30:06.406Z,99091.00
2022-08-04T05:31:46.938Z,99097.00
2022-08-04T05:33:29.345Z,99093.00
2022-08-04T05:35:09.579Z,99093.00
2022-08-04T05:36:50.077Z,99093.00
2022-08-04T05:38:27.747Z,99097.00
2022-08-04T05:40:07.247Z,99098.00
2022-08-04T05:41:45.414Z,99085.00
2022-08-04T05:43:20.772Z,99091.00
2022-08-04T05:44:56.181Z,99093.00
2022-08-04T05:46:32.281Z,99086.00
2022-08-04T05:48:09.655Z,99080.00
2022-08-04T05:49:43.992Z,99088.00
2022-08-04T05:51:18.251Z,99092.00
2022-08-04T05:52:53.522Z,99096.00
2022-08-04T05:54:36.793Z,99091.00
2022-08-04T05:56:11.498Z,99091.00
2022-08-04T05:57:51.828Z,99091.00
2022-08-04T05:59:32.043Z,99091.00
2022-08-04T06:01:08.290Z,99093.00
2022-08-04T06:02:45.179Z,99091.00
2022-08-04T06:04:21.026Z,99091.00
2022-08-04T06:05:58.453Z,99090.00
2022-08-04T06:07:31.865Z,99089.00
2022-08-04T06:09:06.162Z,99095.00
2022-08-04T06:10:43.722Z,99090.00
2022-08-04T06:12:37.716Z,99094.00
2022-08-04T06:14:16.782Z,99085.00
2022-08-04T06:15:52.358Z,99083.00
2022-08-04T06:18:58.544Z,99102.00
2022-08-04T06:20:03.400Z,99090.00
2022-08-04T06:21:29.571Z,99092.00
2022-08-04T06:23:09.695Z,99089.00
2022-08-04T06:24:48.208Z,99084.00
2022-08-04T06:26:24.515Z,99083.00
2022-08-04T06:27:59.781Z,99083.00
2022-08-04T06:29:39.119Z,99078.00
2022-08-04T06:32:29.602Z,99082.00
2022-08-04T06:33:24.359Z,99076.00
2022-08-04T06:35:03.036Z,99088.00
2022-08-04T06:36:40.888Z,99088.00
2022-08-04T06:38:15.021Z,99089.00
2022-08-04T06:39:49.159Z,99083.00
2022-08-04T06:41:24.257Z,99087.00
2022-08-04T06:42:58.864Z,99086.00
2022-08-04T06:44:34.853Z,99075.00
2022-08-04T06:46:10.435Z,99087.00
2022-08-04T06:47:46.255Z,99081.00
2022-08-04T06:49:22.439Z,99091.00
2022-08-04T06:51:24.795Z,99086.00
2022-08-04T06:52:50.343Z,99086.00
2022-08-04T06:54:23.915Z,99090.00
2022-08-04T06:56:00.632Z,99081.00
2022-08-04T06:57:37.281Z,99080.00
2022-08-04T06:59:15.102Z,99076.00
2022-08-04T07:00:51.894Z,99084.00
2022-08-04T07:02:30.123Z,99084.00
2022-08-04T07:04:04.654Z,99075.00
2022-08-04T07:05:39.673Z,99072.00
2022-08-04T07:07:14.252Z,99077.00
2022-08-04T07:08:48.025Z,99079.00
2022-08-04T07:10:24.672Z,99075.00
2022-08-04T07:12:00.073Z,99074.00
2022-08-04T07:13:34.486Z,99066.00
2022-08-04T07:15:10.407Z,99060.00
2022-08-04T07:16:50.995Z,99068.00
2022-08-04T07:18:25.286Z,99072.00
2022-08-04T07:19:59.447Z,99075.00
2022-08-04T07:21:36.451Z,99073.00
2022-08-04T07:23:11.973Z,99068.00
2022-08-04T07:24:45.302Z,99068.00
2022-08-04T07:26:19.813Z,99060.00
2022-08-04T07:27:53.331Z,99059.00
2022-08-04T07:29:27.840Z,99059.00
2022-08-04T07:31:04.541Z,99065.00
2022-08-04T07:32:46.068Z,99057.00
2022-08-04T07:34:22.199Z,99065.00
2022-08-04T07:36:09.922Z,99061.00
2022-08-04T07:37:44.783Z,99067.00
2022-08-04T07:39:21.871Z,99067.00
2022-08-04T07:41:03.851Z,99061.00
2022-08-04T07:42:38.504Z,99061.00
2022-08-04T07:44:15.712Z,99064.00
2022-08-04T07:45:49.647Z,99064.00
2022-08-04T07:47:25.626Z,99068.00
2022-08-04T07:49:01.752Z,99063.00
2022-08-04T07:50:36.020Z,99062.00
2022-08-04T07:52:10.564Z,99064.00
2022-08-04T07:53:54.947Z,99064.00
2022-08-04T07:55:30.981Z,99067.00
2022-08-04T07:57:05.232Z,99067.00
2022-08-04T07:58:38.891Z,99075.00
2022-08-04T08:00:15.031Z,99076.00
2022-08-04T08:01:50.605Z,99070.00
2022-08-04T08:03:26.361Z,99072.00
2022-08-04T08:05:02.186Z,99075.00
2022-08-04T08:06:42.705Z,99075.00
2022-08-04T08:08:16.814Z,99076.00
2022-08-04T08:09:50.729Z,99085.00
2022-08-04T08:11:24.637Z,99079.00
2022-08-04T08:13:19.430Z,99075.00
2022-08-04T08:14:53.853Z,99078.00
2022-08-04T08:16:28.530Z,99073.00
2022-08-04T08:18:01.934Z,99074.00
2022-08-04T08:19:38.501Z,99087.00
2022-08-04T08:21:13.357Z,99072.00
2022-08-04T08:22:47.198Z,99083.00
2022-08-04T08:24:20.700Z,99081.00
2022-08-04T08:25:54.702Z,99068.00
2022-08-04T08:27:27.319Z,99070.00
2022-08-04T08:29:01.255Z,99078.00
2022-08-04T08:30:35.379Z,99075.00
2022-08-04T08:32:14.227Z,99074.00
2022-08-04T08:33:51.914Z,99071.00
2022-08-04T08:35:28.686Z,99067.00
2022-08-04T08:37:13.644Z,99080.00
2022-08-04T08:39:00.299Z,99080.00
2022-08-04T08:40:47.675Z,99076.00
2022-08-04T08:43:03.683Z,99080.00
2022-08-04T08:45:25.305Z,99086.00
2022-08-04T08:47:20.383Z,99083.00
2022-08-04T08:50:02.493Z,99080.00
2022-08-04T08:51:59.855Z,99088.00
2022-08-04T08:54:39.084Z,99088.00
2022-08-04T08:56:31.326Z,99074.00
2022-08-04T08:58:24.328Z,99085.00
2022-08-04T09:00:11.137Z,99082.00
2022-08-04T09:02:10.762Z,99084.00
2022-08-04T09:04:32.594Z,99080.00
2022-08-04T09:06:46.068Z,99083.00
2022-08-04T09:08:44.227Z,99084.00
2022-08-04T09:10:33.329Z,99080.00
2022-08-04T09:12:15.258Z,99076.00
2022-08-04T09:13:58.762Z,99079.00
2022-08-04T09:15:41.168Z,99069.00
2022-08-04T09:17:28.155Z,99077.00
2022-08-04T09:19:22.711Z,99076.00
2022-08-04T09:21:16.220Z,99074.00
2022-08-04T09:22:59.935Z,99079.00
2022-08-04T09:24:52.234Z,99078.00
2022-08-04T09:26:36.057Z,99076.00
2022-08-04T09:28:43.545Z,99084.00
2022-08-04T09:30:20.929Z,99080.00
2022-08-04T09:32:07.590Z,99071.00
2022-08-04T09:33:51.792Z,99087.00
2022-08-04T09:35:38.435Z,99081.00
2022-08-04T09:37:25.960Z,99071.00
2022-08-04T09:39:16.026Z,99079.00
2022-08-04T09:40:58.681Z,99077.00
2022-08-04T09:42:45.739Z,99074.00
2022-08-04T09:44:52.475Z,99072.00
2022-08-04T09:46:34.433Z,99071.00
2022-08-04T09:48:16.287Z,99068.00
2022-08-04T09:49:59.076Z,99074.00
2022-08-04T09:51:56.872Z,99084.00
2022-08-04T09:53:49.770Z,99072.00
2022-08-04T09:55:53.859Z,99074.00
2022-08-04T09:57:46.727Z,99090.00
2022-08-04T09:59:29.091Z,99077.00
2022-08-04T10:01:09.165Z,99085.00
2022-08-04T10:02:49.873Z,99085.00
2022-08-04T10:04:29.292Z,99079.00
2022-08-04T10:06:16.942Z,99078.00
2022-08-04T10:08:16.102Z,99077.00
2022-08-04T10:10:11.497Z,99085.00
2022-08-04T10:12:09.405Z,99084.00
2022-08-04T10:14:00.118Z,99077.00
2022-08-04T10:15:45.917Z,99089.00
2022-08-04T10:17:38.870Z,99080.00
2022-08-04T10:19:28.270Z,99086.00
2022-08-04T10:21:15.577Z,99084.00
2022-08-04T10:23:11.534Z,99093.00
2022-08-04T10:25:04.549Z,99092.00
2022-08-04T10:26:53.188Z,99090.00
2022-08-04T10:28:36.815Z,99088.00
2022-08-04T10:30:17.375Z,99086.00
2022-08-04T10:32:01.932Z,99084.00
2022-08-04T10:33:50.421Z,99080.00
2022-08-04T10:35:27.931Z,99087.00
2022-08-04T10:37:21.189Z,99089.00
2022-08-04T10:39:06.503Z,99086.00
2022-08-04T10:40:46.573Z,99097.00
2022-08-04T10:42:30.962Z,99087.00
2022-08-04T10:44:23.651Z,99088.00
2022-08-04T10:46:08.368Z,99090.00
2022-08-04T10:47:53.778Z,99086.00
2022-08-04T10:49:38.316Z,99086.00
2022-08-04T10:51:57.386Z,99088.00
2022-08-04T10:53:33.022Z,99087.00
2022-08-04T10:55:15.950Z,99081.00
2022-08-04T10:57:00.275Z,99088.00
2022-08-04T10:58:47.414Z,99087.00
2022-08-04T11:00:26.976Z,99086.00
2022-08-04T11:02:20.935Z,99089.00
2022-08-04T11:04:02.495Z,99087.00
2022-08-04T11:05:45.808Z,99081.00
2022-08-04T11:07:20.645Z,99084.00
2022-08-04T11:08:57.990Z,99091.00
2022-08-04T11:10:38.285Z,99089.00
2022-08-04T11:12:20.432Z,99093.00
2022-08-04T11:14:04.394Z,99092.00
2022-08-04T11:15:43.288Z,99094.00
2022-08-04T11:17:25.718Z,99100.00
2022-08-04T11:19:16.790Z,99099.00
2022-08-04T11:21:00.362Z,99095.00
2022-08-04T11:22:42.598Z,99096.00
2022-08-04T11:24:23.930Z,99097.00
2022-08-04T11:26:08.031Z,99104.00
2022-08-04T11:27:55.243Z,99107.00
2022-08-04T11:29:40.871Z,99110.00
2022-08-04T11:31:22.304Z,99117.00
2022-08-04T11:33:10.683Z,99116.00
2022-08-04T11:34:52.798Z,99117.00
2022-08-04T11:36:37.863Z,99127.00
2022-08-04T11:38:24.173Z,99111.00
2022-08-04T11:40:14.596Z,99128.00
2022-08-04T11:41:57.721Z,99132.00
2022-08-04T11:43:58.667Z,99126.00
2022-08-04T11:45:46.782Z,99131.00
2022-08-04T11:47:30.890Z,99116.00
2022-08-04T11:49:11.773Z,99117.00
2022-08-04T11:50:53.759Z,99125.00
2022-08-04T11:52:31.908Z,99128.00
2022-08-04T11:54:06.507Z,99134.00
2022-08-04T11:56:09.549Z,99126.00
2022-08-04T11:57:36.704Z,99135.00
2022-08-04T11:59:10.214Z,99131.00
2022-08-04T12:00:54.843Z,99134.00
2022-08-04T12:03:03.068Z,99138.00
2022-08-04T12:04:52.669Z,99139.00
2022-08-04T12:06:33.920Z,99139.00
2022-08-04T12:08:34.058Z,99139.00
2022-08-04T12:10:37.969Z,99140.00
2022-08-04T12:12:27.269Z,99150.00
2022-08-04T12:14:21.510Z,99153.00
2022-08-04T12:16:07.559Z,99146.00
2022-08-04T12:18:05.460Z,99146.00
2022-08-04T12:20:03.813Z,99148.00
2022-08-04T12:21:50.348Z,99151.00
2022-08-04T12:23:31.731Z,99147.00
2022-08-04T12:25:09.927Z,99143.00
2022-08-04T12:26:51.246Z,99147.00
2022-08-04T12:28:52.415Z,99140.00
2022-08-04T12:30:58.560Z,99149.00
2022-08-04T12:32:34.055Z,99147.00
2022-08-04T12:34:13.959Z,99151.00
2022-08-04T12:36:11.015Z,99158.00
2022-08-04T12:37:59.315Z,99151.00
2022-08-04T12:39:34.263Z,99150.00
2022-08-04T12:41:09.368Z,99155.00
2022-08-04T12:42:59.735Z,99154.00
2022-08-04T12:44:38.831Z,99151.00
2022-08-04T12:46:21.304Z,99144.00
2022-08-04T12:47:58.809Z,99139.00
2022-08-04T12:49:35.700Z,99125.00
2022-08-04T12:52:06.253Z,99118.00
2022-08-04T12:53:31.241Z,99123.00
2022-08-04T12:55:07.523Z,99123.00
2022-08-04T12:56:48.996Z,99124.00
2022-08-04T12:58:42.370Z,99122.00
2022-08-04T13:00:34.182Z,99134.00
2022-08-04T13:02:17.840Z,99130.00
2022-08-04T13:03:58.545Z,99131.00
2022-08-04T13:05:34.130Z,99123.00
2022-08-04T13:07:16.606Z,99119.00
2022-08-04T13:08:50.283Z,99126.00
2022-08-04T13:10:30.525Z,99133.00
2022-08-04T13:12:13.137Z,99135.00
2022-08-04T13:13:56.719Z,99131.00
2022-08-04T13:15:47.336Z,99144.00
2022-08-04T13:17:50.599Z,99138.00
2022-08-04T13:19:25.284Z,99143.00
2022-08-04T13:21:16.977Z,99142.00
2022-08-04T13:23:09.122Z,99150.00
2022-08-04T13:25:18.439Z,99145.00
2022-08-04T13:26:56.003Z,99146.00
2022-08-04T13:28:34.257Z,99147.00
2022-08-04T13:30:12.829Z,99148.00
2022-08-04T13:31:57.359Z,99135.00
2022-08-04T13:33:33.543Z,99142.00
2022-08-04T13:35:11.558Z,99145.00
2022-08-04T13:36:46.092Z,99142.00
2022-08-04T13:38:25.112Z,99139.00
2022-08-04T13:40:00.551Z,99144.00
2022-08-04T13:41:36.459Z,99146.00
2022-08-04T13:44:18.948Z,99143.00
2022-08-04T13:45:23.220Z,99147.00
2022-08-04T13:47:14.768Z,99150.00
2022-08-04T13:49:08.992Z,99151.00
2022-08-04T13:50:48.728Z,99147.00
2022-08-04T13:52:27.579Z,99144.00
2022-08-04T13:54:02.869Z,99147.00
2022-08-04T13:55:38.199Z,99143.00
2022-08-04T13:57:19.903Z,99151.00
2022-08-04T13:58:58.368Z,99144.00
2022-08-04T14:00:47.602Z,99153.00
2022-08-04T14:02:38.604Z,99144.00
2022-08-04T14:04:19.410Z,99142.00
2022-08-04T14:06:17.863Z,99148.00
2022-08-04T14:07:59.188Z,99142.00
2022-08-04T14:09:39.042Z,99144.00
2022-08-04T14:12:09.922Z,99140.00
2022-08-04T14:13:08.034Z,99143.00
2022-08-04T14:14:48.188Z,99150.00
2022-08-04T14:16:22.946Z,99147.00
2022-08-04T14:18:18.156Z,99150.00
2022-08-04T14:19:56.888Z,99145.00
2022-08-04T14:21:37.462Z,99143.00
2022-08-04T14:23:11.388Z,99144.00
2022-08-04T14:24:57.143Z,99138.00
2022-08-04T14:26:34.379Z,99135.00
2022-08-04T14:28:08.006Z,99132.00
2022-08-04T14:29:41.821Z,99136.00
2022-08-04T14:31:17.774Z,99131.00
2022-08-04T14:32:58.228Z,99140.00
2022-08-04T14:34:33.535Z,99131.00
2022-08-04T14:36:14.911Z,99138.00
2022-08-04T14:37:57.288Z,99133.00
2022-08-04T14:40:18.954Z,99131.00
2022-08-04T14:41:49.843Z,99130.00
2022-08-04T14:43:23.435Z,99135.00
2022-08-04T14:45:00.890Z,99132.00
2022-08-04T14:46:36.677Z,99134.00
2022-08-04T14:48:13.294Z,99132.00
2022-08-04T14:49:55.945Z,99125.00
2022-08-04T14:51:36.309Z,99128.00
2022-08-04T14:53:13.950Z,99122.00
2022-08-04T14:54:47.656Z,99125.00
2022-08-04T14:56:37.789Z,99132.00
2022-08-04T14:58:34.747Z,99132.00
2022-08-04T15:00:17.149Z,99129.00
2022-08-04T15:02:00.481Z,99141.00
2022-08-04T15:03:35.578Z,99136.00
2022-08-04T15:06:01.879Z,99140.00
2022-08-04T15:07:18.430Z,99139.00
2022-08-04T15:08:54.220Z,99142.00
2022-08-04T15:10:28.160Z,99144.00
2022-08-04T15:12:02.417Z,99143.00
2022-08-04T15:13:38.420Z,99143.00
2022-08-04T15:15:35.389Z,99138.00
2022-08-04T15:17:12.461Z,99136.00
2022-08-04T15:19:02.811Z,99136.00
2022-08-04T15:20:38.177Z,99131.00
2022-08-04T15:22:17.634Z,99141.00
2022-08-04T15:24:00.484Z,99135.00
2022-08-04T15:25:37.514Z,99140.00
2022-08-04T15:27:12.758Z,99134.00
2022-08-04T15:28:56.067Z,99130.00
2022-08-04T15:30:31.632Z,99129.00
2022-08-04T15:32:09.418Z,99128.00
2022-08-04T15:33:43.384Z,99127.00
2022-08-04T15:35:27.219Z,99127.00
2022-08-04T15:37:07.899Z,99122.00
2022-08-04T15:38:54.253Z,99122.00
2022-08-04T15:40:36.714Z,99119.00
2022-08-04T15:42:25.197Z,99122.00
2022-08-04T15:44:41.217Z,99128.00
2022-08-04T15:46:44.371Z,99125.00
2022-08-04T15:48:36.320Z,99134.00
2022-08-04T15:50:12.483Z,99131.00
2022-08-04T15:51:45.891Z,99126.00
2022-08-04T15:53:23.044Z,99131.00
2022-08-04T15:55:39.787Z,99133.00
2022-08-04T15:57:14.284Z,99127.00
2022-08-04T15:58:51.630Z,99125.00
2022-08-04T16:00:26.544Z,99130.00
2022-08-04T16:02:44.233Z,99127.00
2022-08-04T16:04:26.186Z,99126.00
2022-08-04T16:06:00.077Z,99128.00
2022-08-04T16:07:54.515Z,99121.00
2022-08-04T16:09:45.746Z,99124.00
2022-08-04T16:11:41.179Z,99133.00
2022-08-04T16:13:19.562Z,99130.00
2022-08-04T16:14:53.233Z,99127.00
2022-08-04T16:16:33.074Z,99132.00
2022-08-04T16:18:13.711Z,99124.00
2022-08-04T16:20:11.084Z,99121.00
2022-08-04T16:21:50.224Z,99123.00
2022-08-04T16:24:02.282Z,99120.00
2022-08-04T16:25:49.236Z,99126.00
2022-08-04T16:27:38.900Z,99129.00
2022-08-04T16:29:36.614Z,99120.00
2022-08-04T16:31:13.551Z,99126.00
2022-08-04T16:32:49.987Z,99119.00
2022-08-04T16:34:50.146Z,99127.00
2022-08-04T16:36:17.206Z,99125.00
2022-08-04T16:37:56.783Z,99118.00
2022-08-04T16:39:30.659Z,99125.00
2022-08-04T16:41:41.371Z,99126.00
2022-08-04T16:43:17.290Z,99113.00
2022-08-04T16:45:01.234Z,99120.00
2022-08-04T16:47:01.256Z,99113.00
2022-08-04T16:48:38.043Z,99120.00
2022-08-04T16:50:10.756Z,99118.00
2022-08-04T16:51:44.247Z,99120.00
2022-08-04T16:53:53.205Z,99128.00
2022-08-04T16:55:18.736Z,99122.00
2022-08-04T16:56:52.824Z,99127.00
2022-08-04T16:58:32.557Z,99119.00
2022-08-04T17:00:08.472Z,99127.00
2022-08-04T17:01:49.301Z,99125.00
2022-08-04T17:03:23.605Z,99127.00
2022-08-04T17:05:07.145Z,99129.00
2022-08-04T17:06:43.874Z,99133.00
2022-08-04T17:08:29.661Z,99129.00
2022-08-04T17:10:03.564Z,99139.00
2022-08-04T17:11:37.772Z,99135.00
2022-08-04T17:14:02.848Z,99137.00
2022-08-04T17:15:25.528Z,99152.00
2022-08-04T17:17:01.651Z,99145.00
2022-08-04T17:18:38.699Z,99141.00
2022-08-04T17:20:13.831Z,99150.00
2022-08-04T17:21:47.588Z,99149.00
2022-08-04T17:24:14.438Z,99148.00
2022-08-04T17:25:21.256Z,99157.00
2022-08-04T17:28:08.571Z,99152.00
2022-08-04T17:29:09.135Z,99155.00
2022-08-04T17:30:51.472Z,99161.00
2022-08-04T17:32:26.028Z,99164.00
2022-08-04T17:34:03.036Z,99169.00
2022-08-04T17:35:40.492Z,99175.00
2022-08-04T17:37:37.997Z,99174.00
2022-08-04T17:39:20.345Z,99181.00
2022-08-04T17:40:58.871Z,99180.00
2022-08-04T17:42:38.230Z,99175.00
2022-08-04T17:44:11.924Z,99178.00
2022-08-04T17:45:53.748Z,99170.00
2022-08-04T17:47:38.141Z,99167.00
2022-08-04T17:49:21.535Z,99167.00
2022-08-04T17:51:16.771Z,99171.00
2022-08-04T17:53:01.080Z,99168.00
2022-08-04T17:54:38.998Z,99159.00
2022-08-04T17:56:32.232Z,99163.00
2022-08-04T17:58:22.164Z,99155.00
2022-08-04T17:59:59.362Z,99158.00
2022-08-04T18:01:52.047Z,99156.00
2022-08-04T18:03:29.907Z,99146.00
2022-08-04T18:05:07.615Z,99138.00
2022-08-04T18:06:52.891Z,99132.00
2022-08-04T18:08:38.852Z,99123.00
2022-08-04T18:10:30.583Z,99115.00
2022-08-04T18:12:14.632Z,99112.00
2022-08-04T18:13:56.959Z,99112.00
2022-08-04T18:15:44.283Z,99112.00
2022-08-04T18:18:21.443Z,99103.00
2022-08-04T18:19:31.583Z,99101.00
2022-08-04T18:21:05.828Z,99104.00
2022-08-04T18:22:42.029Z,99102.00
2022-08-04T18:24:17.003Z,99107.00
2022-08-04T18:25:52.193Z,99105.00
2022-08-04T18:27:30.775Z,99110.00
2022-08-04T18:29:04.841Z,99107.00
2022-08-04T18:30:54.873Z,99108.00
2022-08-04T18:32:33.048Z,99102.00
2022-08-04T18:34:13.879Z,99104.00
2022-08-04T18:36:36.976Z,99103.00
2022-08-04T18:38:05.770Z,99103.00
2022-08-04T18:40:25.072Z,99098.00
2022-08-04T18:42:01.248Z,99098.00
2022-08-04T18:43:40.803Z,99099.00
2022-08-04T18:45:15.043Z,99101.00
2022-08-04T18:46:52.577Z,99097.00
2022-08-04T18:48:36.942Z,99098.00
2022-08-04T18:50:58.457Z,99099.00
2022-08-04T18:52:06.181Z,99100.00
2022-08-04T18:53:54.961Z,99097.00
2022-08-04T18:55:57.357Z,99107.00
2022-08-04T18:57:58.439Z,99103.00
2022-08-04T18:59:22.716Z,99103.00
2022-08-04T19:00:55.819Z,99111.00
2022-08-04T19:02:29.464Z,99117.00
2022-08-04T19:04:03.603Z,99110.00
2022-08-04T19:05:58.395Z,99125.00
2022-08-04T19:07:32.247Z,99121.00
2022-08-04T19:09:07.510Z,99137.00
2022-08-04T19:10:40.984Z,99138.00
2022-08-04T19:12:15.800Z,99142.00
2022-08-04T19:14:01.615Z,99147.00
2022-08-04T19:15:36.031Z,99147.00
2022-08-04T19:17:12.315Z,99158.00
2022-08-04T19:18:45.970Z,99155.00
2022-08-04T19:20:25.633Z,99168.00
2022-08-04T19:22:02.452Z,99169.00
2022-08-04T19:24:29.162Z,99166.00
2022-08-04T19:25:59.581Z,99172.00
2022-08-04T19:27:38.777Z,99173.00
2022-08-04T19:29:14.807Z,99178.00
2022-08-04T19:30:48.423Z,99172.00
2022-08-04T19:32:22.336Z,99174.00
2022-08-04T19:34:04.310Z,99173.00
2022-08-04T19:35:46.215Z,99170.00
2022-08-04T19:37:56.804Z,99173.00
2022-08-04T19:39:18.015Z,99169.00
2022-08-04T19:40:57.186Z,99164.00
2022-08-04T19:42:31.940Z,99175.00
2022-08-04T19:44:06.144Z,99168.00
2022-08-04T19:45:41.595Z,99179.00
2022-08-04T19:49:08.700Z,99178.00
2022-08-04T19:51:02.122Z,99183.00
2022-08-04T19:52:36.067Z,99185.00
2022-08-04T19:54:16.737Z,99187.00
2022-08-04T19:55:58.328Z,99183.00
2022-08-04T19:57:35.664Z,99196.00
2022-08-04T19:59:10.818Z,99192.00
2022-08-04T20:00:51.335Z,99187.00
2022-08-04T20:02:26.512Z,99191.00
2022-08-04T20:04:09.950Z,99197.00
2022-08-04T20:05:53.207Z,99189.00
2022-08-04T20:07:30.168Z,99200.00
2022-08-04T20:09:24.505Z,99196.00
2022-08-04T20:11:00.600Z,99185.00
2022-08-04T20:12:34.573Z,99190.00
2022-08-04T20:14:15.393Z,99193.00
2022-08-04T20:15:59.534Z,99200.00
2022-08-04T20:18:34.768Z,99205.00
2022-08-04T20:19:27.053Z,99211.00
2022-08-04T20:21:00.898Z,99211.00
2022-08-04T20:22:52.111Z,99210.00
2022-08-04T20:24:38.798Z,99217.00
2022-08-04T20:26:16.919Z,99212.00
2022-08-04T20:27:59.217Z,99211.00
2022-08-04T20:29:39.887Z,99219.00
2022-08-04T20:31:18.307Z,99214.00
2022-08-04T20:32:53.937Z,99224.00
2022-08-04T20:34:27.304Z,99220.00
2022-08-04T20:36:05.561Z,99223.00
2022-08-04T20:38:00.298Z,99217.00
2022-08-04T20:39:34.783Z,99224.00
2022-08-04T20:41:08.371Z,99229.00
2022-08-04T20:42:46.131Z,99223.00
2022-08-04T20:44:22.262Z,99228.00